sensor_id;sensor_type;location;lat;lon;timestamp;pressure;altitude;pressure_sealevel;temperature;humidity
53246;BME280;39569;51.090;-1.786;2022-08-21T00:02:24;100992.53;;;20.36;61.48
53246;BME280;39569;51.090;-1.786;2022-08-21T00:04:53;100985.06;;;20.20;61.18
53246;BME280;39569;51.090;-1.786;2022-08-21T00:07:20;100984.38;;;20.07;61.58
53246;BME280;39569;51.090;-1.786;2022-08-21T00:09:49;100978.59;;;20.33;60.89
53246;BME280;39569;51.090;-1.786;2022-08-21T00:12:16;100968.81;;;20.02;61.77
53246;BME280;39569;51.090;-1.786;2022-08-21T00:14:43;100965.56;;;19.64;63.16
53246;BME280;39569;51.090;-1.786;2022-08-21T00:17:10;100959.41;;;20.05;61.63
53246;BME280;39569;51.090;-1.786;2022-08-21T00:19:37;100959.94;;;19.66;63.04
53246;BME280;39569;51.090;-1.786;2022-08-21T00:22:04;100957.06;;;19.90;62.15
53246;BME280;39569;51.090;-1.786;2022-08-21T00:24:31;100959.69;;;19.67;63.43
53246;BME280;39569;51.090;-1.786;2022-08-21T00:26:59;100957.78;;;19.86;62.95
53246;BME280;39569;51.090;-1.786;2022-08-21T00:29:26;100953.31;;;19.91;63.03
53246;BME280;39569;51.090;-1.786;2022-08-21T00:31:53;100957.16;;;20.13;62.57
53246;BME280;39569;51.090;-1.786;2022-08-21T00:34:20;100952.75;;;20.19;62.22
53246;BME280;39569;51.090;-1.786;2022-08-21T00:36:46;100963.28;;;20.09;62.61
53246;BME280;39569;51.090;-1.786;2022-08-21T00:39:13;100968.44;;;19.99;62.25
53246;BME280;39569;51.090;-1.786;2022-08-21T00:41:42;100959.97;;;20.25;61.94
53246;BME280;39569;51.090;-1.786;2022-08-21T00:44:12;100960.72;;;19.84;62.78
53246;BME280;39569;51.090;-1.786;2022-08-21T00:46:42;100959.53;;;20.10;62.32
53246;BME280;39569;51.090;-1.786;2022-08-21T00:49:10;100966.69;;;19.75;63.81
53246;BME280;39569;51.090;-1.786;2022-08-21T00:51:41;100958.81;;;19.85;63.48
53246;BME280;39569;51.090;-1.786;2022-08-21T00:54:09;100953.19;;;20.16;62.42
53246;BME280;39569;51.090;-1.786;2022-08-21T00:56:37;100952.53;;;20.32;61.77
53246;BME280;39569;51.090;-1.786;2022-08-21T00:59:05;100948.66;;;20.10;62.62
53246;BME280;39569;51.090;-1.786;2022-08-21T01:01:33;100954.81;;;20.17;62.34
53246;BME280;39569;51.090;-1.786;2022-08-21T01:04:00;100952.91;;;20.06;62.39
53246;BME280;39569;51.090;-1.786;2022-08-21T01:06:27;100955.09;;;19.68;63.52
53246;BME280;39569;51.090;-1.786;2022-08-21T01:08:54;100957.41;;;19.82;63.11
53246;BME280;39569;51.090;-1.786;2022-08-21T01:11:21;100951.88;;;19.41;64.52
53246;BME280;39569;51.090;-1.786;2022-08-21T01:13:48;100954.69;;;19.34;64.80
53246;BME280;39569;51.090;-1.786;2022-08-21T01:16:19;100955.91;;;19.14;65.72
53246;BME280;39569;51.090;-1.786;2022-08-21T01:18:48;100962.44;;;19.49;64.45
53246;BME280;39569;51.090;-1.786;2022-08-21T01:21:20;100960.41;;;19.20;65.43
53246;BME280;39569;51.090;-1.786;2022-08-21T01:23:49;100963.72;;;19.04;65.86
53246;BME280;39569;51.090;-1.786;2022-08-21T01:26:19;100955.53;;;19.10;65.91
53246;BME280;39569;51.090;-1.786;2022-08-21T01:28:49;100956.06;;;19.19;65.14
53246;BME280;39569;51.090;-1.786;2022-08-21T01:31:23;100963.91;;;19.27;64.92
53246;BME280;39569;51.090;-1.786;2022-08-21T01:33:51;100955.25;;;19.36;64.47
53246;BME280;39569;51.090;-1.786;2022-08-21T01:36:19;100951.06;;;19.58;63.61
53246;BME280;39569;51.090;-1.786;2022-08-21T01:38:46;100948.72;;;19.62;63.28
53246;BME280;39569;51.090;-1.786;2022-08-21T01:41:13;100949.09;;;19.66;63.84
53246;BME280;39569;51.090;-1.786;2022-08-21T01:43:40;100946.28;;;19.72;63.17
53246;BME280;39569;51.090;-1.786;2022-08-21T01:46:08;100950.00;;;19.41;63.83
53246;BME280;39569;51.090;-1.786;2022-08-21T01:48:35;100943.91;;;19.64;63.66
53246;BME280;39569;51.090;-1.786;2022-08-21T01:51:04;100943.97;;;19.57;63.84
53246;BME280;39569;51.090;-1.786;2022-08-21T01:53:33;100950.28;;;19.70;63.60
53246;BME280;39569;51.090;-1.786;2022-08-21T01:56:01;100957.53;;;19.39;64.69
53246;BME280;39569;51.090;-1.786;2022-08-21T01:58:28;100964.44;;;19.53;64.08
53246;BME280;39569;51.090;-1.786;2022-08-21T02:00:55;100959.03;;;19.35;64.77
53246;BME280;39569;51.090;-1.786;2022-08-21T02:03:22;100974.22;;;19.36;64.56
53246;BME280;39569;51.090;-1.786;2022-08-21T02:05:49;100968.34;;;19.21;65.53
53246;BME280;39569;51.090;-1.786;2022-08-21T02:08:16;100968.53;;;19.20;65.89
53246;BME280;39569;51.090;-1.786;2022-08-21T02:10:44;100966.53;;;19.51;65.19
53246;BME280;39569;51.090;-1.786;2022-08-21T02:13:12;100966.16;;;19.66;64.28
53246;BME280;39569;51.090;-1.786;2022-08-21T02:15:38;100969.47;;;19.68;64.28
53246;BME280;39569;51.090;-1.786;2022-08-21T02:18:06;100951.97;;;19.34;64.86
53246;BME280;39569;51.090;-1.786;2022-08-21T02:20:35;100949.69;;;19.68;64.19
53246;BME280;39569;51.090;-1.786;2022-08-21T02:23:03;100946.66;;;19.21;65.28
53246;BME280;39569;51.090;-1.786;2022-08-21T02:25:30;100949.25;;;19.34;64.61
53246;BME280;39569;51.090;-1.786;2022-08-21T02:28:01;100942.53;;;19.55;63.61
53246;BME280;39569;51.090;-1.786;2022-08-21T02:30:31;100944.25;;;19.13;65.31
53246;BME280;39569;51.090;-1.786;2022-08-21T02:32:59;100947.28;;;19.89;62.59
53246;BME280;39569;51.090;-1.786;2022-08-21T02:35:27;100940.72;;;19.67;63.59
53246;BME280;39569;51.090;-1.786;2022-08-21T02:37:56;100930.84;;;19.73;62.98
53246;BME280;39569;51.090;-1.786;2022-08-21T02:40:26;100926.25;;;19.55;63.01
53246;BME280;39569;51.090;-1.786;2022-08-21T02:42:53;100933.94;;;19.04;63.98
53246;BME280;39569;51.090;-1.786;2022-08-21T02:45:22;100930.94;;;19.12;63.80
53246;BME280;39569;51.090;-1.786;2022-08-21T02:47:50;100929.88;;;19.31;63.43
53246;BME280;39569;51.090;-1.786;2022-08-21T02:50:20;100921.09;;;19.35;63.75
53246;BME280;39569;51.090;-1.786;2022-08-21T02:52:47;100934.16;;;19.02;64.67
53246;BME280;39569;51.090;-1.786;2022-08-21T02:55:14;100940.28;;;19.16;64.58
53246;BME280;39569;51.090;-1.786;2022-08-21T02:57:42;100938.31;;;19.23;64.69
53246;BME280;39569;51.090;-1.786;2022-08-21T03:00:09;100946.47;;;18.80;66.19
53246;BME280;39569;51.090;-1.786;2022-08-21T03:02:38;100956.91;;;18.77;65.82
53246;BME280;39569;51.090;-1.786;2022-08-21T03:05:07;100958.94;;;18.81;65.86
53246;BME280;39569;51.090;-1.786;2022-08-21T03:07:35;100963.25;;;19.07;64.93
53246;BME280;39569;51.090;-1.786;2022-08-21T03:10:02;100970.09;;;18.42;66.23
53246;BME280;39569;51.090;-1.786;2022-08-21T03:12:29;100961.88;;;18.80;64.56
53246;BME280;39569;51.090;-1.786;2022-08-21T03:14:56;100968.59;;;18.71;64.68
53246;BME280;39569;51.090;-1.786;2022-08-21T03:17:24;100970.38;;;18.58;64.66
53246;BME280;39569;51.090;-1.786;2022-08-21T03:19:52;100969.66;;;18.70;64.97
53246;BME280;39569;51.090;-1.786;2022-08-21T03:22:19;100965.91;;;18.71;64.38
53246;BME280;39569;51.090;-1.786;2022-08-21T03:24:45;100952.66;;;18.31;66.25
53246;BME280;39569;51.090;-1.786;2022-08-21T03:27:12;100949.16;;;18.55;65.17
53246;BME280;39569;51.090;-1.786;2022-08-21T03:29:39;100942.16;;;17.79;67.40
53246;BME280;39569;51.090;-1.786;2022-08-21T03:32:06;100938.91;;;17.71;68.07
53246;BME280;39569;51.090;-1.786;2022-08-21T03:34:35;100941.75;;;18.13;66.83
53246;BME280;39569;51.090;-1.786;2022-08-21T03:37:04;100930.06;;;18.50;66.35
53246;BME280;39569;51.090;-1.786;2022-08-21T03:39:31;100936.41;;;18.38;66.85
53246;BME280;39569;51.090;-1.786;2022-08-21T03:41:58;100932.41;;;18.16;67.56
53246;BME280;39569;51.090;-1.786;2022-08-21T03:44:25;100926.91;;;18.29;66.61
53246;BME280;39569;51.090;-1.786;2022-08-21T03:46:54;100930.69;;;18.52;65.72
53246;BME280;39569;51.090;-1.786;2022-08-21T03:49:21;100924.34;;;18.83;64.85
53246;BME280;39569;51.090;-1.786;2022-08-21T03:51:48;100923.88;;;18.68;65.05
53246;BME280;39569;51.090;-1.786;2022-08-21T03:54:16;100910.81;;;19.01;64.05
53246;BME280;39569;51.090;-1.786;2022-08-21T03:56:43;100911.56;;;18.90;64.66
53246;BME280;39569;51.090;-1.786;2022-08-21T03:59:10;100911.03;;;18.82;65.14
53246;BME280;39569;51.090;-1.786;2022-08-21T04:01:38;100909.91;;;18.46;66.66
53246;BME280;39569;51.090;-1.786;2022-08-21T04:04:06;100930.53;;;18.47;66.50
53246;BME280;39569;51.090;-1.786;2022-08-21T04:06:33;100930.38;;;18.60;66.14
53246;BME280;39569;51.090;-1.786;2022-08-21T04:09:00;100937.28;;;18.81;65.32
53246;BME280;39569;51.090;-1.786;2022-08-21T04:11:28;100948.13;;;18.56;66.34
53246;BME280;39569;51.090;-1.786;2022-08-21T04:13:55;100954.34;;;18.26;67.54
53246;BME280;39569;51.090;-1.786;2022-08-21T04:16:22;100949.53;;;18.34;67.12
53246;BME280;39569;51.090;-1.786;2022-08-21T04:18:49;100944.44;;;18.51;65.89
53246;BME280;39569;51.090;-1.786;2022-08-21T04:21:16;100938.22;;;18.13;67.46
53246;BME280;39569;51.090;-1.786;2022-08-21T04:23:43;100931.97;;;18.68;65.64
53246;BME280;39569;51.090;-1.786;2022-08-21T04:26:09;100929.91;;;18.45;66.25
53246;BME280;39569;51.090;-1.786;2022-08-21T04:28:38;100933.69;;;18.38;66.71
53246;BME280;39569;51.090;-1.786;2022-08-21T04:31:05;100938.25;;;18.37;66.61
53246;BME280;39569;51.090;-1.786;2022-08-21T04:33:32;100944.03;;;18.72;65.36
53246;BME280;39569;51.090;-1.786;2022-08-21T04:35:58;100947.34;;;18.49;66.44
53246;BME280;39569;51.090;-1.786;2022-08-21T04:38:25;100942.84;;;17.68;68.16
53246;BME280;39569;51.090;-1.786;2022-08-21T04:40:53;100941.69;;;17.51;69.59
53246;BME280;39569;51.090;-1.786;2022-08-21T04:43:20;100939.28;;;17.74;68.45
53246;BME280;39569;51.090;-1.786;2022-08-21T04:45:50;100929.47;;;17.86;67.56
53246;BME280;39569;51.090;-1.786;2022-08-21T04:48:19;100951.72;;;17.82;67.29
53246;BME280;39569;51.090;-1.786;2022-08-21T04:50:50;100955.31;;;17.69;68.20
53246;BME280;39569;51.090;-1.786;2022-08-21T04:53:21;100956.63;;;17.98;67.20
53246;BME280;39569;51.090;-1.786;2022-08-21T04:55:49;100960.22;;;17.92;67.67
53246;BME280;39569;51.090;-1.786;2022-08-21T04:58:17;100961.84;;;17.48;69.22
53246;BME280;39569;51.090;-1.786;2022-08-21T05:00:45;100968.22;;;17.67;68.76
53246;BME280;39569;51.090;-1.786;2022-08-21T05:03:15;100975.13;;;17.94;67.80
53246;BME280;39569;51.090;-1.786;2022-08-21T05:05:43;100977.94;;;17.75;68.36
53246;BME280;39569;51.090;-1.786;2022-08-21T05:08:13;100974.81;;;18.15;67.21
53246;BME280;39569;51.090;-1.786;2022-08-21T05:10:41;100975.59;;;17.91;68.10
53246;BME280;39569;51.090;-1.786;2022-08-21T05:13:10;100995.19;;;17.80;68.63
53246;BME280;39569;51.090;-1.786;2022-08-21T05:15:38;101000.06;;;17.52;69.69
53246;BME280;39569;51.090;-1.786;2022-08-21T05:18:06;100999.00;;;17.66;69.48
53246;BME280;39569;51.090;-1.786;2022-08-21T05:20:35;101000.75;;;17.85;68.76
53246;BME280;39569;51.090;-1.786;2022-08-21T05:23:06;101008.31;;;17.70;69.49
53246;BME280;39569;51.090;-1.786;2022-08-21T05:25:34;101004.41;;;17.66;69.41
53246;BME280;39569;51.090;-1.786;2022-08-21T05:28:01;101016.66;;;17.55;69.66
53246;BME280;39569;51.090;-1.786;2022-08-21T05:30:28;101011.41;;;17.80;68.74
53246;BME280;39569;51.090;-1.786;2022-08-21T05:32:56;101001.53;;;17.41;69.82
53246;BME280;39569;51.090;-1.786;2022-08-21T05:35:24;101003.28;;;17.74;69.25
53246;BME280;39569;51.090;-1.786;2022-08-21T05:37:53;101003.34;;;17.60;69.54
53246;BME280;39569;51.090;-1.786;2022-08-21T05:40:19;101002.50;;;17.66;68.86
53246;BME280;39569;51.090;-1.786;2022-08-21T05:42:46;100990.41;;;17.76;68.58
53246;BME280;39569;51.090;-1.786;2022-08-21T05:45:13;100989.13;;;18.22;67.18
53246;BME280;39569;51.090;-1.786;2022-08-21T05:47:40;100985.06;;;18.38;66.71
53246;BME280;39569;51.090;-1.786;2022-08-21T05:50:07;100974.75;;;17.91;68.30
53246;BME280;39569;51.090;-1.786;2022-08-21T05:52:34;100978.09;;;18.24;67.18
53246;BME280;39569;51.090;-1.786;2022-08-21T05:55:03;100969.13;;;17.92;68.31
53246;BME280;39569;51.090;-1.786;2022-08-21T05:57:30;100961.41;;;17.96;68.77
53246;BME280;39569;51.090;-1.786;2022-08-21T05:59:57;100961.75;;;18.37;67.38
53246;BME280;39569;51.090;-1.786;2022-08-21T06:02:24;100966.00;;;18.57;66.32
53246;BME280;39569;51.090;-1.786;2022-08-21T06:04:50;100963.66;;;18.68;66.05
53246;BME280;39569;51.090;-1.786;2022-08-21T06:07:17;100952.59;;;18.69;66.05
53246;BME280;39569;51.090;-1.786;2022-08-21T06:09:44;100944.47;;;18.44;66.54
53246;BME280;39569;51.090;-1.786;2022-08-21T06:12:12;100957.34;;;18.18;67.74
53246;BME280;39569;51.090;-1.786;2022-08-21T06:14:40;100959.94;;;17.62;69.30
53246;BME280;39569;51.090;-1.786;2022-08-21T06:17:09;100964.00;;;17.78;69.20
53246;BME280;39569;51.090;-1.786;2022-08-21T06:19:37;100969.91;;;17.61;69.93
53246;BME280;39569;51.090;-1.786;2022-08-21T06:22:04;100972.66;;;17.42;70.85
53246;BME280;39569;51.090;-1.786;2022-08-21T06:24:31;100975.97;;;17.37;70.87
53246;BME280;39569;51.090;-1.786;2022-08-21T06:27:03;100977.28;;;17.79;69.32
53246;BME280;39569;51.090;-1.786;2022-08-21T06:29:31;100972.13;;;18.09;68.78
53246;BME280;39569;51.090;-1.786;2022-08-21T06:31:58;100977.44;;;17.91;69.14
53246;BME280;39569;51.090;-1.786;2022-08-21T06:34:25;100974.06;;;18.02;68.92
53246;BME280;39569;51.090;-1.786;2022-08-21T06:36:52;100969.09;;;17.99;68.66
53246;BME280;39569;51.090;-1.786;2022-08-21T06:39:19;100961.78;;;18.06;68.24
53246;BME280;39569;51.090;-1.786;2022-08-21T06:41:46;100956.81;;;18.34;66.86
53246;BME280;39569;51.090;-1.786;2022-08-21T06:44:16;100953.22;;;18.40;67.14
53246;BME280;39569;51.090;-1.786;2022-08-21T06:46:44;100938.00;;;18.70;65.57
53246;BME280;39569;51.090;-1.786;2022-08-21T06:49:11;100940.19;;;18.61;65.88
53246;BME280;39569;51.090;-1.786;2022-08-21T06:51:38;100939.75;;;18.33;67.29
53246;BME280;39569;51.090;-1.786;2022-08-21T06:54:05;100940.06;;;18.50;66.44
53246;BME280;39569;51.090;-1.786;2022-08-21T06:56:31;100937.41;;;18.68;66.30
53246;BME280;39569;51.090;-1.786;2022-08-21T06:58:58;100928.84;;;18.71;66.25
53246;BME280;39569;51.090;-1.786;2022-08-21T07:01:26;100919.13;;;19.06;64.60
53246;BME280;39569;51.090;-1.786;2022-08-21T07:03:55;100917.34;;;18.76;65.77
53246;BME280;39569;51.090;-1.786;2022-08-21T07:06:21;100904.38;;;18.84;65.57
53246;BME280;39569;51.090;-1.786;2022-08-21T07:08:48;100893.41;;;18.97;64.97
53246;BME280;39569;51.090;-1.786;2022-08-21T07:11:19;100898.72;;;19.04;65.33
53246;BME280;39569;51.090;-1.786;2022-08-21T07:13:46;100903.53;;;19.02;65.36
53246;BME280;39569;51.090;-1.786;2022-08-21T07:16:13;100914.59;;;19.73;62.61
53246;BME280;39569;51.090;-1.786;2022-08-21T07:18:40;100913.25;;;20.23;61.43
53246;BME280;39569;51.090;-1.786;2022-08-21T07:21:08;100904.75;;;20.19;60.77
53246;BME280;39569;51.090;-1.786;2022-08-21T07:23:39;100900.03;;;20.26;61.95
53246;BME280;39569;51.090;-1.786;2022-08-21T07:26:07;100892.28;;;20.41;60.91
53246;BME280;39569;51.090;-1.786;2022-08-21T07:28:34;100905.81;;;20.30;61.01
53246;BME280;39569;51.090;-1.786;2022-08-21T07:31:01;100901.38;;;20.70;59.56
53246;BME280;39569;51.090;-1.786;2022-08-21T07:33:30;100901.47;;;20.52;60.05
53246;BME280;39569;51.090;-1.786;2022-08-21T07:35:57;100908.00;;;20.51;60.57
53246;BME280;39569;51.090;-1.786;2022-08-21T07:38:26;100908.78;;;20.98;59.15
53246;BME280;39569;51.090;-1.786;2022-08-21T07:40:55;100922.34;;;20.51;60.56
53246;BME280;39569;51.090;-1.786;2022-08-21T07:43:24;100921.28;;;21.33;58.41
53246;BME280;39569;51.090;-1.786;2022-08-21T07:45:51;100936.31;;;20.90;59.66
53246;BME280;39569;51.090;-1.786;2022-08-21T07:48:19;100935.13;;;20.86;58.58
53246;BME280;39569;51.090;-1.786;2022-08-21T07:50:46;100940.19;;;20.59;59.36
53246;BME280;39569;51.090;-1.786;2022-08-21T07:53:13;100942.22;;;20.87;59.35
53246;BME280;39569;51.090;-1.786;2022-08-21T07:55:41;100941.84;;;21.18;57.77
53246;BME280;39569;51.090;-1.786;2022-08-21T07:58:08;100934.31;;;21.71;56.27
53246;BME280;39569;51.090;-1.786;2022-08-21T08:00:35;100940.19;;;21.68;56.37
53246;BME280;39569;51.090;-1.786;2022-08-21T08:03:02;100934.06;;;22.45;53.94
53246;BME280;39569;51.090;-1.786;2022-08-21T08:05:30;100938.34;;;22.91;53.62
53246;BME280;39569;51.090;-1.786;2022-08-21T08:07:58;100955.38;;;22.65;54.48
53246;BME280;39569;51.090;-1.786;2022-08-21T08:10:25;100954.91;;;21.56;56.24
53246;BME280;39569;51.090;-1.786;2022-08-21T08:12:53;100961.75;;;21.98;55.55
53246;BME280;39569;51.090;-1.786;2022-08-21T08:15:23;100964.22;;;21.99;56.04
53246;BME280;39569;51.090;-1.786;2022-08-21T08:17:51;100967.06;;;21.65;56.66
53246;BME280;39569;51.090;-1.786;2022-08-21T08:20:18;100979.63;;;20.62;58.54
53246;BME280;39569;51.090;-1.786;2022-08-21T08:22:45;100971.72;;;21.41;57.24
53246;BME280;39569;51.090;-1.786;2022-08-21T08:25:14;100967.28;;;21.00;57.34
53246;BME280;39569;51.090;-1.786;2022-08-21T08:27:41;100974.28;;;21.47;56.78
53246;BME280;39569;51.090;-1.786;2022-08-21T08:30:11;100983.78;;;21.96;55.02
53246;BME280;39569;51.090;-1.786;2022-08-21T08:32:39;100983.06;;;22.45;54.32
53246;BME280;39569;51.090;-1.786;2022-08-21T08:35:08;100981.66;;;22.43;53.76
53246;BME280;39569;51.090;-1.786;2022-08-21T08:37:36;100991.03;;;22.97;52.21
53246;BME280;39569;51.090;-1.786;2022-08-21T08:40:06;100987.72;;;22.62;53.93
53246;BME280;39569;51.090;-1.786;2022-08-21T08:42:35;100986.56;;;22.74;53.34
53246;BME280;39569;51.090;-1.786;2022-08-21T08:45:04;100996.03;;;23.21;52.77
53246;BME280;39569;51.090;-1.786;2022-08-21T08:47:36;100986.56;;;23.46;52.54
53246;BME280;39569;51.090;-1.786;2022-08-21T08:50:06;100975.03;;;23.82;50.51
53246;BME280;39569;51.090;-1.786;2022-08-21T08:52:41;100980.09;;;24.43;49.49
53246;BME280;39569;51.090;-1.786;2022-08-21T08:55:13;100980.97;;;24.00;50.02
53246;BME280;39569;51.090;-1.786;2022-08-21T08:57:44;100976.84;;;24.78;47.97
53246;BME280;39569;51.090;-1.786;2022-08-21T09:00:16;100978.75;;;24.77;48.01
53246;BME280;39569;51.090;-1.786;2022-08-21T09:02:45;100972.34;;;24.93;47.31
53246;BME280;39569;51.090;-1.786;2022-08-21T09:05:21;100970.00;;;24.17;47.99
53246;BME280;39569;51.090;-1.786;2022-08-21T09:07:58;100957.25;;;25.94;43.38
53246;BME280;39569;51.090;-1.786;2022-08-21T09:10:34;100959.22;;;27.40;40.23
53246;BME280;39569;51.090;-1.786;2022-08-21T09:13:08;100952.84;;;28.85;37.14
53246;BME280;39569;51.090;-1.786;2022-08-21T09:15:51;100939.09;;;29.09;37.27
53246;BME280;39569;51.090;-1.786;2022-08-21T09:18:31;100947.34;;;29.09;36.39
53246;BME280;39569;51.090;-1.786;2022-08-21T09:21:09;100939.72;;;32.06;31.66
53246;BME280;39569;51.090;-1.786;2022-08-21T09:23:47;100935.09;;;31.52;32.34
53246;BME280;39569;51.090;-1.786;2022-08-21T09:26:19;100925.34;;;33.53;29.90
53246;BME280;39569;51.090;-1.786;2022-08-21T09:28:51;100933.84;;;30.39;33.54
53246;BME280;39569;51.090;-1.786;2022-08-21T09:31:22;100933.06;;;30.52;33.55
53246;BME280;39569;51.090;-1.786;2022-08-21T09:33:57;100922.88;;;32.51;30.11
53246;BME280;39569;51.090;-1.786;2022-08-21T09:36:25;100905.72;;;34.49;27.64
53246;BME280;39569;51.090;-1.786;2022-08-21T09:38:56;100917.72;;;30.78;33.75
53246;BME280;39569;51.090;-1.786;2022-08-21T09:41:27;100915.59;;;30.43;33.38
53246;BME280;39569;51.090;-1.786;2022-08-21T09:43:54;100908.03;;;29.56;35.16
53246;BME280;39569;51.090;-1.786;2022-08-21T09:46:23;100908.00;;;28.51;36.72
53246;BME280;39569;51.090;-1.786;2022-08-21T09:48:53;100918.69;;;28.86;37.45
53246;BME280;39569;51.090;-1.786;2022-08-21T09:51:23;100929.59;;;27.27;38.93
53246;BME280;39569;51.090;-1.786;2022-08-21T09:53:54;100925.91;;;28.54;35.60
53246;BME280;39569;51.090;-1.786;2022-08-21T09:56:31;100932.84;;;27.49;37.34
53246;BME280;39569;51.090;-1.786;2022-08-21T09:59:19;100931.81;;;26.04;39.71
53246;BME280;39569;51.090;-1.786;2022-08-21T10:01:49;100934.06;;;27.76;36.21
53246;BME280;39569;51.090;-1.786;2022-08-21T10:04:22;100930.47;;;28.30;35.22
53246;BME280;39569;51.090;-1.786;2022-08-21T10:06:49;100930.88;;;28.47;35.19
53246;BME280;39569;51.090;-1.786;2022-08-21T10:09:17;100941.19;;;26.23;39.32
53246;BME280;39569;51.090;-1.786;2022-08-21T10:11:51;100926.84;;;27.21;38.23
53246;BME280;39569;51.090;-1.786;2022-08-21T10:14:39;100927.25;;;27.69;37.25
53246;BME280;39569;51.090;-1.786;2022-08-21T10:17:15;100925.91;;;28.15;36.53
53246;BME280;39569;51.090;-1.786;2022-08-21T10:19:53;100927.50;;;27.72;37.07
53246;BME280;39569;51.090;-1.786;2022-08-21T10:22:32;100928.69;;;28.05;35.72
53246;BME280;39569;51.090;-1.786;2022-08-21T10:25:09;100941.16;;;26.18;37.73
53246;BME280;39569;51.090;-1.786;2022-08-21T10:27:49;100919.09;;;29.51;33.20
53246;BME280;39569;51.090;-1.786;2022-08-21T10:30:21;100918.53;;;28.05;34.94
53246;BME280;39569;51.090;-1.786;2022-08-21T10:33:02;100917.31;;;29.83;31.83
53246;BME280;39569;51.090;-1.786;2022-08-21T10:35:37;100919.09;;;31.22;31.02
53246;BME280;39569;51.090;-1.786;2022-08-21T10:38:38;100916.13;;;30.91;30.32
53246;BME280;39569;51.090;-1.786;2022-08-21T10:41:15;100912.38;;;30.68;31.98
53246;BME280;39569;51.090;-1.786;2022-08-21T10:43:52;100912.31;;;32.53;28.40
53246;BME280;39569;51.090;-1.786;2022-08-21T10:46:30;100908.38;;;32.76;29.15
53246;BME280;39569;51.090;-1.786;2022-08-21T10:49:13;100920.06;;;32.96;26.79
53246;BME280;39569;51.090;-1.786;2022-08-21T10:51:46;100910.44;;;34.23;26.68
53246;BME280;39569;51.090;-1.786;2022-08-21T10:54:22;100914.13;;;34.69;26.68
53246;BME280;39569;51.090;-1.786;2022-08-21T10:56:58;100919.38;;;34.62;25.73
53246;BME280;39569;51.090;-1.786;2022-08-21T10:59:29;100912.78;;;32.77;26.80
53246;BME280;39569;51.090;-1.786;2022-08-21T11:02:00;100905.16;;;32.52;26.96
53246;BME280;39569;51.090;-1.786;2022-08-21T11:04:34;100903.09;;;34.35;25.66
53246;BME280;39569;51.090;-1.786;2022-08-21T11:07:10;100902.38;;;32.83;26.62
53246;BME280;39569;51.090;-1.786;2022-08-21T11:09:43;100895.41;;;34.41;24.48
53246;BME280;39569;51.090;-1.786;2022-08-21T11:12:20;100899.13;;;32.37;25.75
53246;BME280;39569;51.090;-1.786;2022-08-21T11:14:55;100888.19;;;33.71;25.56
53246;BME280;39569;51.090;-1.786;2022-08-21T11:17:30;100890.72;;;33.99;24.93
53246;BME280;39569;51.090;-1.786;2022-08-21T11:20:05;100897.22;;;34.28;23.37
53246;BME280;39569;51.090;-1.786;2022-08-21T11:22:40;100902.44;;;32.92;27.13
53246;BME280;39569;51.090;-1.786;2022-08-21T11:25:12;100890.41;;;34.89;24.86
53246;BME280;39569;51.090;-1.786;2022-08-21T11:27:46;100891.53;;;35.64;24.02
53246;BME280;39569;51.090;-1.786;2022-08-21T11:30:15;100886.44;;;34.18;24.82
53246;BME280;39569;51.090;-1.786;2022-08-21T11:33:04;100897.00;;;31.76;26.71
53246;BME280;39569;51.090;-1.786;2022-08-21T11:35:39;100907.78;;;32.00;26.22
53246;BME280;39569;51.090;-1.786;2022-08-21T11:38:20;100901.28;;;31.82;26.32
53246;BME280;39569;51.090;-1.786;2022-08-21T11:41:07;100908.19;;;30.71;29.29
53246;BME280;39569;51.090;-1.786;2022-08-21T11:43:40;100906.06;;;29.80;31.07
53246;BME280;39569;51.090;-1.786;2022-08-21T11:46:28;100911.28;;;29.10;32.45
53246;BME280;39569;51.090;-1.786;2022-08-21T11:49:12;100911.69;;;30.26;31.43
53246;BME280;39569;51.090;-1.786;2022-08-21T11:51:48;100911.03;;;30.15;31.89
53246;BME280;39569;51.090;-1.786;2022-08-21T11:54:25;100912.03;;;28.92;32.65
53246;BME280;39569;51.090;-1.786;2022-08-21T11:56:58;100910.66;;;30.22;31.48
53246;BME280;39569;51.090;-1.786;2022-08-21T11:59:32;100904.47;;;30.48;30.18
53246;BME280;39569;51.090;-1.786;2022-08-21T12:02:02;100894.22;;;29.37;32.00
53246;BME280;39569;51.090;-1.786;2022-08-21T12:04:43;100894.28;;;29.32;31.92
53246;BME280;39569;51.090;-1.786;2022-08-21T12:07:12;100895.06;;;29.38;31.90
53246;BME280;39569;51.090;-1.786;2022-08-21T12:09:51;100900.72;;;29.65;32.23
53246;BME280;39569;51.090;-1.786;2022-08-21T12:12:25;100899.53;;;28.48;33.63
53246;BME280;39569;51.090;-1.786;2022-08-21T12:15:14;100907.34;;;27.97;35.15
53246;BME280;39569;51.090;-1.786;2022-08-21T12:17:52;100900.56;;;28.57;34.68
53246;BME280;39569;51.090;-1.786;2022-08-21T12:20:26;100898.66;;;28.19;35.89
53246;BME280;39569;51.090;-1.786;2022-08-21T12:23:02;100897.59;;;28.48;35.02
53246;BME280;39569;51.090;-1.786;2022-08-21T12:25:38;100905.69;;;27.96;35.35
53246;BME280;39569;51.090;-1.786;2022-08-21T12:28:08;100910.38;;;27.95;34.96
53246;BME280;39569;51.090;-1.786;2022-08-21T12:30:38;100903.34;;;27.74;36.27
53246;BME280;39569;51.090;-1.786;2022-08-21T12:33:17;100901.53;;;28.03;36.87
53246;BME280;39569;51.090;-1.786;2022-08-21T12:35:46;100905.97;;;28.33;36.59
53246;BME280;39569;51.090;-1.786;2022-08-21T12:38:17;100903.09;;;27.71;37.39
53246;BME280;39569;51.090;-1.786;2022-08-21T12:40:50;100898.63;;;27.80;36.98
53246;BME280;39569;51.090;-1.786;2022-08-21T12:43:20;100901.19;;;26.82;38.35
53246;BME280;39569;51.090;-1.786;2022-08-21T12:45:50;100900.91;;;27.63;37.84
53246;BME280;39569;51.090;-1.786;2022-08-21T12:48:21;100908.31;;;26.48;40.57
53246;BME280;39569;51.090;-1.786;2022-08-21T12:50:52;100909.31;;;25.82;43.06
53246;BME280;39569;51.090;-1.786;2022-08-21T12:53:26;100905.50;;;25.93;42.57
53246;BME280;39569;51.090;-1.786;2022-08-21T12:56:01;100906.13;;;26.45;41.99